WADD Airport Information

Runway Information
Runway 09 Length 9790 ft width 148 ft
Elevation 11 ft Threshold 0 ft Heading 88
Runway 27 Length 9790 ft Width 148 ft
Elevation 12 ft Threshold 0 ft Heading 268
Airport Frequencies
Type APP Name DIRECTOR Frequency 119.7 MHZ
Type ATIS Name ATIS Frequency 126.2 MHZ
Type GND Name NGURAH GND Frequency 118.8 MHZ
Type INFO Name INFO Frequency 8.88 MHZ
Type TMA Name RADAR Frequency 119.3 MHZ
Type TWR Name NGURAH TWR Frequency 118.1 MHZ
Airport Navaids
Type VOR-DME Name Bali Frequency 116200 KHZ
Type NDB Name Bali Frequency 230 KHZ
Airport Weather Information & NOTAM
ADDS - METARS form results

(2026 UTC 13 June 2021)
Data provider http://aviationweather.gov/metar/data/
 
METAR text: WADD 132000Z 04005KT 9999 BKN016 26/25 Q1010 NOSIG
Conditions at: WADD (BALI INTL , ID) observed 2000 UTC 13 June 2021
Temperature: 26.0°C (79°F)
Dewpoint: 25.0°C (77°F) [RH = 94%]
Pressure (altimeter): 29.82 inches Hg (1010.0 mb)
Winds: from the NE (40 degrees) at 6 MPH (5 knots; 2.6 m/s)
Visibility: 6 or more miles (10+ km)
Ceiling: 1600 feet AGL
Clouds: broken clouds at 1600 feet AGL
Weather: no significant weather observed at this time

METAR text: WADD 131930Z 04003KT 9999 SCT016 26/25 Q1011 NOSIG
Conditions at: WADD (BALI INTL , ID) observed 1930 UTC 13 June 2021
Temperature: 26.0°C (79°F)
Dewpoint: 25.0°C (77°F) [RH = 94%]
Pressure (altimeter): 29.85 inches Hg (1011.0 mb)
Winds: from the NE (40 degrees) at 3 MPH (3 knots; 1.5 m/s)
Visibility: 6 or more miles (10+ km)
Ceiling: at least 12,000 feet AGL
Clouds: scattered clouds at 1600 feet AGL
Weather: no significant weather observed at this time

Forecast for: WADD (BALI INTL , ID)
Text: TAF WADD 131700Z 1318/1418 VRB05KT 9999 SCT016
Forecast period: 1800 UTC 13 June 2021 to 0000 UTC 14 June 2021
Forecast type: FROM: standard forecast or significant change
Winds: variable direction winds at 6 MPH (5 knots; 2.6 m/s)
Visibility: 6 or more miles (10+ km)
Ceiling: at least 12,000 feet AGL
Clouds: scattered clouds at 1600 feet AGL
Weather: no significant weather forecast for this period
Text: BECMG 1400/1402 11010KT
Forecast period: 0000 to 1800 UTC 14 June 2021
Forecast type: BECOMING: Conditions expected to become as follows by 0200 UTC 14 June 2021
Winds: from the ESE (110 degrees) at 12 MPH (10 knots; 5.1 m/s)
Visibility: 6 or more miles (10+ km)
Ceiling: at least 12,000 feet AGL
Clouds: scattered clouds at 1600 feet AGL
Weather: no significant weather forecast for this period